Time;durP1;ratioP1;P1;durP2;ratioP2;P2;SDS_P1;SDS_P2;PMS_P1;PMS_P2;Temp;Humidity;BMP_temperature;BMP_pressure;BME280_temperature;BME280_humidity;BME280_pressure;Samples;Min_cycle;Max_cycle;Signal;HPM_P1;HPM_P2
2021/11/30 00:02:24;;;;;;;20.13;15.90;;;;;;;7.62;96.57;93261.44;5053877;28;20457;-79
2021/11/30 00:04:52;;;;;;;20.43;16.57;;;;;;;7.61;96.69;93261.59;5053824;28;20461;-79
2021/11/30 00:07:19;;;;;;;16.53;14.77;;;;;;;7.54;96.84;93261.38;5053660;28;20443;-79
2021/11/30 00:12:30;;;;;;;16.63;12.80;;;;;;;7.53;97.21;93267.56;5053527;28;20461;-79
2021/11/30 00:14:58;;;;;;;22.67;13.53;;;;;;;7.55;97.08;93264.81;5053233;28;20438;-79
2021/11/30 00:17:24;;;;;;;16.27;12.80;;;;;;;7.53;96.82;93266.75;5053271;28;20454;-79
2021/11/30 00:19:53;;;;;;;16.07;12.93;;;;;;;7.55;96.96;93260.41;5053468;28;20477;-79
2021/11/30 00:22:23;;;;;;;14.43;11.97;;;;;;;7.51;97.34;93253.81;5022291;28;20437;-79
2021/11/30 00:24:51;;;;;;;14.57;12.23;;;;;;;7.52;96.96;93249.44;5057053;28;20429;-79
2021/11/30 00:27:18;;;;;;;14.70;12.27;;;;;;;7.52;97.20;93250.28;5057512;28;20435;-79
2021/11/30 00:29:45;;;;;;;17.43;11.50;;;;;;;7.51;97.37;93248.59;5022331;28;20453;-79
2021/11/30 00:32:13;;;;;;;14.67;11.60;;;;;;;7.53;97.38;93251.91;5056881;28;20451;-79
2021/11/30 00:34:39;;;;;;;13.10;11.70;;;;;;;7.55;96.90;93252.56;5056935;28;20802;-76
2021/11/30 00:37:08;;;;;;;16.20;11.23;;;;;;;7.56;96.80;93245.56;5021820;28;20453;-76
2021/11/30 00:39:35;;;;;;;12.80;10.17;;;;;;;7.54;97.33;93250.13;5022038;28;20481;-76
2021/11/30 00:42:02;;;;;;;9.93;8.93;;;;;;;7.54;97.65;93247.50;5057302;28;20451;-76
2021/11/30 00:44:33;;;;;;;10.00;7.80;;;;;;;7.50;97.15;93249.56;5056602;28;21131;-76
2021/11/30 00:47:00;;;;;;;9.13;7.60;;;;;;;7.50;97.52;93256.59;5056826;28;20454;-76
2021/11/30 00:49:27;;;;;;;8.97;7.23;;;;;;;7.50;97.31;93254.81;5056850;28;20452;-79
2021/11/30 00:51:55;;;;;;;9.37;8.23;;;;;;;7.49;97.42;93249.72;5021739;28;20797;-76
2021/11/30 00:54:25;;;;;;;9.23;8.37;;;;;;;7.47;97.20;93253.31;5056809;28;20450;-76
2021/11/30 00:56:53;;;;;;;10.70;8.30;;;;;;;7.45;97.30;93242.22;5056643;28;20572;-76
2021/11/30 00:59:22;;;;;;;13.17;10.43;;;;;;;7.51;97.57;93245.19;5056853;28;20487;-77
2021/11/30 01:01:49;;;;;;;18.83;15.00;;;;;;;7.47;97.45;93242.88;5056853;28;20459;-76
2021/11/30 01:04:16;;;;;;;21.13;16.07;;;;;;;7.50;97.93;93241.75;5057303;28;20449;-76
2021/11/30 01:06:42;;;;;;;19.77;16.67;;;;;;;7.50;98.38;93241.75;5056088;28;20441;-76
2021/11/30 01:09:10;;;;;;;20.63;17.30;;;;;;;7.51;97.89;93234.75;5056825;28;20449;-78
2021/11/30 01:11:39;;;;;;;23.63;16.97;;;;;;;7.53;98.75;93231.03;5021381;28;20956;-76
2021/11/30 01:14:07;;;;;;;16.20;13.13;;;;;;;7.52;98.70;93221.56;5021129;28;20955;-76
2021/11/30 01:16:35;;;;;;;12.00;9.23;;;;;;;7.54;98.79;93221.41;5056200;28;20455;-76
2021/11/30 01:19:03;;;;;;;14.43;10.40;;;;;;;7.56;98.20;93207.25;5056030;28;20482;-76
2021/11/30 01:21:30;;;;;;;11.20;9.50;;;;;;;7.61;98.30;93206.78;5056278;28;20851;-76
2021/11/30 01:23:57;;;;;;;12.73;9.70;;;;;;;7.64;98.28;93196.84;5056411;28;20533;-77
2021/11/30 01:26:24;;;;;;;10.47;8.93;;;;;;;7.67;97.92;93204.34;5056230;28;20442;-76
2021/11/30 01:28:52;;;;;;;14.03;10.73;;;;;;;7.70;97.94;93198.00;5055770;28;20454;-76
2021/11/30 01:31:19;;;;;;;20.90;12.27;;;;;;;7.73;98.43;93208.97;5037374;28;20936;-76
2021/11/30 01:33:46;;;;;;;23.23;16.67;;;;;;;7.77;98.52;93212.06;5055517;28;20529;-77
2021/11/30 01:36:13;;;;;;;24.70;15.57;;;;;;;7.74;98.35;93212.38;5056359;28;20789;-76
2021/11/30 01:38:40;;;;;;;25.23;16.03;;;;;;;7.76;98.30;93226.09;5055837;28;20446;-76
2021/11/30 01:41:08;;;;;;;20.03;15.37;;;;;;;7.77;97.96;93219.91;5055935;28;20451;-76
2021/11/30 01:43:40;;;;;;;22.60;15.30;;;;;;;7.75;97.84;93219.25;5056046;28;20474;-76
2021/11/30 01:46:12;;;;;;;19.00;13.60;;;;;;;7.66;97.40;93218.38;5055915;28;20768;-76
2021/11/30 01:51:27;;;;;;;32.47;19.43;;;;;;;7.42;99.48;93215.59;5055731;28;20426;-76
2021/11/30 01:53:55;;;;;;;46.27;21.73;;;;;;;7.20;100.00;93216.09;5055784;28;20441;-76
2021/11/30 01:56:22;;;;;;;31.23;23.30;;;;;;;7.06;100.00;93214.84;5054746;28;20471;-76
2021/11/30 01:58:50;;;;;;;34.07;25.10;;;;;;;6.87;100.00;93207.16;5054796;28;20498;-77
2021/11/30 02:01:19;;;;;;;28.80;19.87;;;;;;;6.68;100.00;93216.78;5055381;28;20453;-76
2021/11/30 02:03:47;;;;;;;17.17;12.13;;;;;;;6.36;100.00;93227.69;5055564;28;20429;-79
2021/11/30 02:06:14;;;;;;;8.83;7.93;;;;;;;6.07;99.39;93233.03;5055336;28;20438;-79
2021/11/30 02:08:41;;;;;;;9.33;4.93;;;;;;;5.56;98.00;93229.06;5055209;28;20430;-79
2021/11/30 02:11:08;;;;;;;3.27;2.97;;;;;;;5.16;97.18;93236.25;5055328;28;20942;-79
2021/11/30 02:13:36;;;;;;;2.27;2.07;;;;;;;4.94;97.67;93235.59;5055375;28;20780;-79
2021/11/30 02:16:05;;;;;;;1.70;1.60;;;;;;;4.54;98.77;93243.47;5054830;28;20448;-79
2021/11/30 02:18:39;;;;;;;1.70;1.60;;;;;;;4.30;99.49;93241.25;5055455;28;20920;-79
2021/11/30 02:21:08;;;;;;;1.83;1.70;;;;;;;3.93;100.00;93240.19;5055127;28;20528;-79
2021/11/30 02:23:38;;;;;;;1.50;1.40;;;;;;;3.72;100.00;93250.59;5054689;28;20441;-79
2021/11/30 02:26:09;;;;;;;2.77;1.80;;;;;;;3.60;100.00;93254.25;5054920;28;20445;-79
2021/11/30 02:28:36;;;;;;;1.70;1.60;;;;;;;3.46;100.00;93247.59;5054915;28;20503;-79
2021/11/30 02:31:03;;;;;;;2.00;1.60;;;;;;;3.26;100.00;93251.06;5054540;28;20449;-79
2021/11/30 02:33:33;;;;;;;1.23;1.13;;;;;;;3.15;100.00;93258.88;5019751;28;20785;-78
2021/11/30 02:36:00;;;;;;;2.80;1.80;;;;;;;3.05;100.00;93257.03;5054595;28;20456;-78
2021/11/30 02:38:29;;;;;;;3.90;1.87;;;;;;;3.04;100.00;93270.94;5054939;28;20448;-78
2021/11/30 02:40:55;;;;;;;1.77;1.47;;;;;;;3.06;100.00;93271.66;5054803;28;20468;-79
2021/11/30 02:43:22;;;;;;;1.70;1.60;;;;;;;2.99;100.00;93270.50;5018141;28;20441;-78
2021/11/30 02:45:49;;;;;;;1.30;1.20;;;;;;;3.00;100.00;93277.34;5054396;28;20224;-79
2021/11/30 02:48:16;;;;;;;1.83;1.73;;;;;;;2.89;100.00;93285.16;5054874;28;20431;-78
2021/11/30 02:50:43;;;;;;;1.40;1.30;;;;;;;2.80;100.00;93278.94;5054611;28;20457;-78
2021/11/30 02:53:16;;;;;;;2.07;1.50;;;;;;;2.76;100.00;93284.50;5054877;28;20806;-79
2021/11/30 02:55:45;;;;;;;1.90;1.80;;;;;;;2.69;100.00;93291.94;5054476;28;20495;-79
2021/11/30 02:58:13;;;;;;;1.47;1.37;;;;;;;2.62;100.00;93292.56;5054451;28;20449;-78
2021/11/30 03:00:40;;;;;;;2.13;2.03;;;;;;;2.56;100.00;93304.19;5035679;28;20477;-79
2021/11/30 03:03:08;;;;;;;3.53;2.90;;;;;;;2.60;100.00;93303.03;5054509;28;20461;-78
2021/11/30 03:05:35;;;;;;;3.63;2.87;;;;;;;2.57;100.00;93323.97;5055076;28;20822;-78
2021/11/30 03:08:02;;;;;;;2.20;2.00;;;;;;;2.55;100.00;93322.44;5054523;28;20449;-78
2021/11/30 03:10:29;;;;;;;3.50;2.60;;;;;;;2.54;100.00;93323.38;5054297;28;20449;-79
2021/11/30 03:12:57;;;;;;;3.97;3.67;;;;;;;2.52;100.00;93330.44;5054226;28;20433;-78
2021/11/30 03:15:26;;;;;;;3.60;2.40;;;;;;;2.49;100.00;93339.28;5053719;28;20448;-78
2021/11/30 03:17:54;;;;;;;1.27;1.17;;;;;;;2.47;100.00;93348.94;5054404;28;20453;-78
2021/11/30 03:20:21;;;;;;;3.65;2.88;;;;;;;2.57;100.00;93355.03;5053775;28;20483;-79
2021/11/30 03:22:48;;;;;;;3.30;2.87;;;;;;;2.57;100.00;93354.22;5054464;28;20191;-79
2021/11/30 03:25:16;;;;;;;1.50;1.40;;;;;;;2.50;100.00;93359.06;5054117;28;20445;-79
2021/11/30 03:27:45;;;;;;;1.30;1.20;;;;;;;2.45;100.00;93363.78;5018991;28;20441;-79
2021/11/30 03:30:14;;;;;;;2.03;1.93;;;;;;;2.40;100.00;93371.06;5054308;28;20488;-79
2021/11/30 03:35:26;;;;;;;2.03;1.92;;;;;;;2.52;100.00;93382.22;5053443;28;20934;-79
2021/11/30 03:37:53;;;;;;;3.10;2.77;;;;;;;2.49;100.00;93381.53;5053618;28;20191;-79
2021/11/30 03:40:20;;;;;;;8.67;6.80;;;;;;;2.40;100.00;93379.66;5053908;28;20779;-79
2021/11/30 03:42:47;;;;;;;2.40;2.20;;;;;;;2.46;100.00;93397.31;5053745;28;20447;-79
2021/11/30 03:45:16;;;;;;;2.47;2.27;;;;;;;2.44;100.00;93394.00;5035559;28;20433;-79
2021/11/30 03:47:43;;;;;;;3.80;3.00;;;;;;;2.39;100.00;93400.50;5053385;28;20445;-79
2021/11/30 03:50:10;;;;;;;2.47;2.27;;;;;;;2.37;100.00;93400.59;5053462;28;20468;-79
2021/11/30 03:52:38;;;;;;;1.57;1.47;;;;;;;2.37;100.00;93398.03;5053418;28;20434;-79
2021/11/30 03:55:07;;;;;;;2.73;2.50;;;;;;;2.37;100.00;93415.31;5052833;28;20489;-78
2021/11/30 03:57:34;;;;;;;5.60;3.20;;;;;;;2.31;100.00;93398.47;5053367;28;20473;-79
2021/11/30 04:00:05;;;;;;;2.60;2.30;;;;;;;2.31;100.00;93411.41;5053451;28;20534;-79
2021/11/30 04:02:33;;;;;;;7.53;3.67;;;;;;;2.40;100.00;93415.91;5019476;28;21018;-79
2021/11/30 04:05:00;;;;;;;5.73;3.37;;;;;;;2.40;100.00;93426.25;5053605;28;20202;-79
2021/11/30 04:07:27;;;;;;;7.45;4.35;;;;;;;2.46;100.00;93424.94;5052942;28;20936;-79
2021/11/30 04:09:54;;;;;;;2.80;2.20;;;;;;;2.52;100.00;93423.66;5053643;28;20202;-79
2021/11/30 04:12:21;;;;;;;4.47;2.97;;;;;;;2.52;100.00;93423.66;5018579;28;20437;-79
2021/11/30 04:14:47;;;;;;;4.33;3.93;;;;;;;2.40;100.00;93439.19;5053224;28;20783;-79
2021/11/30 04:17:14;;;;;;;4.10;3.00;;;;;;;2.43;100.00;93435.53;5053153;28;20430;-79
2021/11/30 04:19:43;;;;;;;4.30;3.30;;;;;;;2.49;100.00;93433.31;5052848;28;20244;-79
2021/11/30 04:22:09;;;;;;;2.37;2.17;;;;;;;2.39;100.00;93460.03;5053227;28;20438;-79
2021/11/30 04:24:36;;;;;;;3.20;2.90;;;;;;;2.34;100.00;93455.19;5053104;28;20779;-82
2021/11/30 04:27:04;;;;;;;7.10;4.10;;;;;;;2.35;100.00;93456.03;5017430;28;20444;-78
2021/11/30 04:29:31;;;;;;;3.58;2.83;;;;;;;2.39;100.00;93465.19;5053618;28;20545;-78
2021/11/30 04:31:58;;;;;;;4.20;2.87;;;;;;;2.36;100.00;93468.03;5018574;28;20289;-81
2021/11/30 04:34:25;;;;;;;3.60;3.20;;;;;;;2.37;100.00;93469.66;5052718;28;20433;-80
2021/11/30 04:36:53;;;;;;;4.23;2.87;;;;;;;2.96;100.00;93464.25;5053146;28;20445;-79
2021/11/30 04:39:20;;;;;;;3.93;2.47;;;;;;;2.60;100.00;93473.06;5052986;28;20445;-79
2021/11/30 04:41:47;;;;;;;3.87;3.57;;;;;;;2.47;100.00;93486.97;5052639;28;20481;-80
2021/11/30 04:44:14;;;;;;;4.57;3.10;;;;;;;2.44;100.00;93489.78;5052914;28;20445;-79
2021/11/30 04:46:51;;;;;;;2.70;2.50;;;;;;;2.41;100.00;93499.56;5053113;28;20436;-79
2021/11/30 04:49:28;;;;;;;3.07;2.77;;;;;;;2.39;100.00;93494.50;5052389;28;20443;-79
2021/11/30 04:51:57;;;;;;;3.13;2.83;;;;;;;2.28;100.00;93502.22;5053442;28;20514;-79
2021/11/30 04:54:24;;;;;;;3.10;2.77;;;;;;;2.19;100.00;93521.03;5052494;28;20469;-79
2021/11/30 04:56:52;;;;;;;5.20;3.08;;;;;;;2.09;100.00;93512.31;5053023;28;21076;-81
2021/11/30 04:59:21;;;;;;;3.20;2.90;;;;;;;2.04;100.00;93527.34;5071448;28;20194;-80
2021/11/30 05:01:48;;;;;;;4.32;3.42;;;;;;;2.10;100.00;93534.66;5072637;28;20497;-81
2021/11/30 05:04:16;;;;;;;3.00;2.72;;;;;;;2.06;100.00;93534.06;5072896;28;20197;-80
2021/11/30 05:06:44;;;;;;;4.38;3.97;;;;;;;2.05;100.00;93539.34;5072664;28;20194;-81
2021/11/30 05:09:12;;;;;;;3.30;3.03;;;;;;;2.03;100.00;93551.56;5076685;28;20186;-79
2021/11/30 05:11:39;;;;;;;6.63;3.40;;;;;;;2.06;100.00;93557.34;5075959;28;20436;-79
2021/11/30 05:14:07;;;;;;;6.32;3.50;;;;;;;1.97;100.00;93563.16;5076353;28;20202;-80
2021/11/30 05:16:34;;;;;;;5.60;3.60;;;;;;;1.86;100.00;93566.56;5076251;28;20190;-80
2021/11/30 05:19:01;;;;;;;6.72;4.90;;;;;;;1.91;100.00;93568.81;5076248;28;20198;-81
2021/11/30 05:21:27;;;;;;;6.70;5.10;;;;;;;1.91;100.00;93580.91;5075917;28;20220;-81
2021/11/30 05:23:59;;;;;;;16.07;8.13;;;;;;;1.81;100.00;93589.34;5076067;28;20186;-81
2021/11/30 05:26:27;;;;;;;10.13;6.10;;;;;;;1.83;100.00;93584.88;5076224;28;20461;-81
2021/11/30 05:32:17;;;;;;;11.23;6.70;;;;;;;1.82;100.00;93596.16;5074678;28;20197;-81
2021/11/30 05:34:43;;;;;;;5.27;4.77;;;;;;;1.80;100.00;93600.63;5075920;28;20187;-81
2021/11/30 05:37:10;;;;;;;6.57;5.97;;;;;;;1.77;100.00;93610.34;5076489;28;20448;-81
2021/11/30 05:39:37;;;;;;;10.02;7.75;;;;;;;1.69;100.00;93599.72;5075605;28;20939;-81
2021/11/30 05:42:07;;;;;;;13.27;7.22;;;;;;;1.63;100.00;93611.31;5075479;28;20213;-81
2021/11/30 05:44:34;;;;;;;22.20;8.60;;;;;;;1.63;100.00;93613.06;5075610;28;20201;-81
2021/11/30 05:47:01;;;;;;;7.97;6.97;;;;;;;1.57;100.00;93619.50;5075460;28;20273;-81
2021/11/30 05:49:28;;;;;;;10.75;8.32;;;;;;;1.59;100.00;93620.22;5076251;28;20191;-81
2021/11/30 05:51:55;;;;;;;23.30;15.05;;;;;;;1.55;100.00;93629.13;5075206;28;20290;-82
2021/11/30 05:54:21;;;;;;;9.05;7.30;;;;;;;1.59;100.00;93627.97;5075372;28;20187;-82
2021/11/30 05:56:49;;;;;;;10.93;7.95;;;;;;;1.66;100.00;93636.13;5040182;28;20704;-82
2021/11/30 05:59:19;;;;;;;11.25;8.40;;;;;;;1.76;100.00;93645.72;5040299;28;20204;-78
2021/11/30 06:01:46;;;;;;;10.45;6.65;;;;;;;1.82;100.00;93647.88;5040480;28;20225;-79
2021/11/30 06:04:13;;;;;;;5.47;4.95;;;;;;;1.82;100.00;93655.63;5075766;28;20194;-80
2021/11/30 06:06:40;;;;;;;6.88;5.63;;;;;;;1.80;100.00;93670.44;5075897;28;20190;-80
2021/11/30 06:09:09;;;;;;;7.10;6.15;;;;;;;1.79;100.00;93676.53;5075070;28;20190;-80
2021/11/30 06:11:37;;;;;;;7.53;6.82;;;;;;;1.82;100.00;93681.50;5075398;28;20198;-79
2021/11/30 06:47:43;;;;;;;7.07;5.75;;;;;;;1.52;100.00;93746.50;5074432;28;20190;-80
2021/11/30 06:50:11;;;;;;;12.05;7.88;;;;;;;1.47;100.00;93758.09;5074417;28;20194;-79
2021/11/30 06:52:39;;;;;;;7.65;6.63;;;;;;;1.46;100.00;93774.53;5074851;28;20206;-79
2021/11/30 06:55:06;;;;;;;8.30;6.28;;;;;;;1.45;100.00;93765.13;5075058;28;20201;-79
2021/11/30 06:57:34;;;;;;;18.15;11.10;;;;;;;1.50;100.00;93775.97;5006252;28;20230;-79
2021/11/30 07:00:04;;;;;;;13.20;8.85;;;;;;;1.50;100.00;93783.72;5072863;28;20569;-79
2021/11/30 07:02:32;;;;;;;17.40;10.60;;;;;;;1.63;100.00;93786.28;5073239;28;20201;-79
2021/11/30 07:05:06;;;;;;;16.40;9.95;;;;;;;1.65;100.00;93787.84;5073345;28;20208;-79
2021/11/30 07:07:45;;;;;;;18.75;10.45;;;;;;;1.72;100.00;93804.59;5039263;28;20661;-80
2021/11/30 07:10:23;;;;;;;14.98;9.57;;;;;;;1.68;100.00;93812.66;5054430;28;20293;-80
2021/11/30 07:13:03;;;;;;;11.43;8.10;;;;;;;1.61;100.00;93812.25;5072733;28;20741;-80
2021/11/30 07:15:30;;;;;;;12.15;8.95;;;;;;;1.71;100.00;93818.44;5072822;28;20209;-80
2021/11/30 07:17:58;;;;;;;9.40;7.25;;;;;;;1.74;100.00;93823.44;5072945;28;20198;-80
2021/11/30 07:20:26;;;;;;;9.75;8.13;;;;;;;1.64;100.00;93826.72;5037783;28;20667;-80
2021/11/30 07:22:56;;;;;;;8.80;7.70;;;;;;;1.61;100.00;93832.94;5072382;28;20198;-80
2021/11/30 07:25:23;;;;;;;7.82;6.93;;;;;;;1.63;100.00;93833.66;5072750;28;20945;-80
2021/11/30 07:27:50;;;;;;;11.30;7.40;;;;;;;1.60;100.00;93845.97;5072870;28;20543;-80
2021/11/30 07:30:17;;;;;;;10.65;7.22;;;;;;;1.62;100.00;93847.53;5072284;28;20781;-80
2021/11/30 07:32:44;;;;;;;11.65;8.70;;;;;;;1.63;100.00;93854.34;5072304;28;20202;-80
2021/11/30 07:35:11;;;;;;;10.50;7.93;;;;;;;1.65;100.00;93862.81;5037558;28;20202;-80
2021/11/30 07:37:39;;;;;;;12.07;8.90;;;;;;;1.68;100.00;93877.31;5072498;28;20204;-80
2021/11/30 07:40:07;;;;;;;11.77;7.60;;;;;;;1.61;100.00;93876.88;5072726;28;20209;-79
2021/11/30 07:42:34;;;;;;;12.23;9.27;;;;;;;1.71;100.00;93882.28;4988588;28;20230;-79
2021/11/30 07:45:01;;;;;;;13.05;9.27;;;;;;;1.81;100.00;93883.31;5053581;28;20200;-79
2021/11/30 07:47:28;;;;;;;10.85;9.00;;;;;;;1.74;100.00;93895.84;5072369;28;20194;-79
2021/11/30 07:49:55;;;;;;;13.27;9.90;;;;;;;1.71;100.00;93903.78;5072280;28;20247;-80
2021/11/30 07:52:22;;;;;;;10.52;8.02;;;;;;;1.80;100.00;93903.19;5072081;28;20202;-80
2021/11/30 07:54:52;;;;;;;11.75;9.15;;;;;;;1.88;100.00;93910.44;5072165;28;20193;-79
2021/11/30 07:57:21;;;;;;;13.50;8.25;;;;;;;1.81;100.00;93925.53;5072402;28;20260;-79
2021/11/30 07:59:48;;;;;;;15.95;9.25;;;;;;;1.81;100.00;93924.72;5072333;28;20213;-79
2021/11/30 08:02:15;;;;;;;12.95;10.45;;;;;;;1.83;100.00;93923.69;5072680;28;20234;-79
2021/11/30 08:04:42;;;;;;;11.27;9.40;;;;;;;1.81;100.00;93922.13;5072207;28;20206;-79
2021/11/30 08:07:09;;;;;;;13.88;10.90;;;;;;;1.90;100.00;93931.84;5072061;28;20219;-79
2021/11/30 08:09:37;;;;;;;11.10;9.55;;;;;;;1.90;100.00;93943.94;5072299;28;20281;-79
2021/11/30 08:12:06;;;;;;;14.30;10.60;;;;;;;1.98;100.00;93955.44;5072311;28;20232;-79
2021/11/30 08:14:33;;;;;;;10.57;8.90;;;;;;;1.92;100.00;93965.38;5072393;28;20198;-79
2021/11/30 08:17:00;;;;;;;24.08;15.05;;;;;;;1.90;100.00;93962.88;5037317;28;20554;-80
2021/11/30 08:19:28;;;;;;;15.93;11.27;;;;;;;1.92;100.00;93973.97;5072164;28;20200;-79
2021/11/30 08:21:55;;;;;;;16.58;10.45;;;;;;;1.84;100.00;93966.72;5072071;28;20232;-79
2021/11/30 08:24:22;;;;;;;21.45;12.32;;;;;;;1.82;100.00;93984.09;5071946;28;20198;-80
2021/11/30 08:26:49;;;;;;;14.27;11.80;;;;;;;1.85;100.00;93978.72;5071954;28;20282;-79
2021/11/30 08:29:17;;;;;;;14.93;10.20;;;;;;;1.79;100.00;93997.22;5071891;28;20599;-80
2021/11/30 08:31:44;;;;;;;16.02;11.77;;;;;;;1.72;100.00;93995.13;5071751;28;20198;-80
2021/11/30 08:34:11;;;;;;;21.70;14.55;;;;;;;1.69;100.00;94003.91;5072428;28;20205;-79
2021/11/30 08:36:38;;;;;;;17.58;11.65;;;;;;;1.61;100.00;94002.75;5036826;28;20208;-79
2021/11/30 08:39:05;;;;;;;18.20;12.35;;;;;;;1.59;100.00;93992.50;5071773;28;20202;-80
2021/11/30 08:41:32;;;;;;;17.98;12.82;;;;;;;1.68;100.00;94001.41;5071798;28;20229;-80
2021/11/30 08:43:59;;;;;;;18.58;11.95;;;;;;;1.73;100.00;93997.59;5040287;28;20333;-80
2021/11/30 08:46:27;;;;;;;16.90;11.88;;;;;;;1.71;100.00;94004.63;5076001;28;20664;-80
2021/11/30 08:48:54;;;;;;;18.40;13.10;;;;;;;1.80;100.00;94009.22;5075719;28;20584;-80
2021/11/30 08:51:21;;;;;;;18.40;12.85;;;;;;;1.91;100.00;94013.69;5075861;28;20293;-80
2021/11/30 08:53:48;;;;;;;17.90;11.98;;;;;;;1.96;100.00;94018.56;5075512;28;20288;-80
2021/11/30 08:56:15;;;;;;;18.10;14.48;;;;;;;1.99;100.00;94028.69;5075369;28;20236;-80
2021/11/30 08:58:42;;;;;;;19.02;13.90;;;;;;;2.06;100.00;94038.56;5075288;28;20206;-80
2021/11/30 09:01:10;;;;;;;22.50;15.27;;;;;;;1.96;99.99;94029.72;5075130;28;20242;-80
2021/11/30 09:03:39;;;;;;;18.67;14.05;;;;;;;1.91;99.61;94052.50;5075510;28;20255;-80
2021/11/30 09:06:05;;;;;;;13.35;9.55;;;;;;;1.85;99.93;94051.13;5075801;28;20232;-80
2021/11/30 09:08:32;;;;;;;16.60;12.40;;;;;;;1.85;99.75;94045.97;5075099;28;20233;-80
2021/11/30 09:10:59;;;;;;;20.50;12.50;;;;;;;1.83;99.46;94045.22;5075266;28;20198;-79
2021/11/30 09:13:26;;;;;;;31.35;17.10;;;;;;;1.84;99.35;94069.34;5056442;28;20566;-80
2021/11/30 09:15:53;;;;;;;20.33;12.00;;;;;;;1.90;100.00;94060.34;5074880;28;20198;-80
2021/11/30 09:18:20;;;;;;;18.77;14.13;;;;;;;1.96;100.00;94072.88;5075211;28;20441;-80
2021/11/30 09:20:48;;;;;;;18.48;14.23;;;;;;;1.93;98.32;94075.66;5074801;28;20927;-80
2021/11/30 09:23:15;;;;;;;13.23;10.63;;;;;;;1.83;96.58;94068.50;5075020;28;20206;-80
2021/11/30 09:25:42;;;;;;;17.52;12.88;;;;;;;1.94;98.31;94078.16;5039560;28;20675;-80
2021/11/30 09:28:09;;;;;;;14.80;12.57;;;;;;;2.00;97.27;94072.59;5075278;28;20241;-80
2021/11/30 09:30:37;;;;;;;22.73;14.73;;;;;;;2.02;96.10;94083.66;5074757;28;20547;-80
2021/11/30 09:33:04;;;;;;;16.30;11.88;;;;;;;2.12;97.49;94073.56;5074963;28;20202;-80
2021/11/30 09:35:32;;;;;;;13.63;9.55;;;;;;;2.13;96.09;94080.41;5074904;28;20213;-80
2021/11/30 09:38:00;;;;;;;14.73;10.18;;;;;;;2.27;97.64;94098.44;5074783;28;20193;-80
2021/11/30 09:40:30;;;;;;;14.63;10.43;;;;;;;2.22;95.13;94105.66;5074665;28;20202;-80
2021/11/30 09:42:57;;;;;;;15.25;11.40;;;;;;;2.25;94.85;94100.28;5074910;28;20218;-80
2021/11/30 09:45:26;;;;;;;15.38;11.00;;;;;;;2.17;93.93;94107.72;5074739;28;20202;-79
2021/11/30 09:47:54;;;;;;;10.67;9.20;;;;;;;2.24;94.09;94108.97;5074375;28;20297;-80
2021/11/30 09:50:25;;;;;;;11.43;10.27;;;;;;;2.18;93.10;94110.22;5074600;28;20449;-80
2021/11/30 09:52:56;;;;;;;11.80;9.18;;;;;;;2.17;94.90;94113.72;5073937;28;20452;-79
2021/11/30 09:55:26;;;;;;;16.10;9.57;;;;;;;2.26;93.90;94116.66;5074584;28;20244;-79
2021/11/30 09:57:54;;;;;;;12.17;8.33;;;;;;;2.22;92.24;94120.38;5074563;28;20262;-79
2021/11/30 10:00:24;;;;;;;14.43;9.13;;;;;;;2.23;92.44;94122.84;5074257;28;20931;-79
2021/11/30 10:02:54;;;;;;;18.27;11.20;;;;;;;2.23;92.93;94119.44;5073997;28;20491;-79
2021/11/30 10:05:21;;;;;;;20.77;10.63;;;;;;;2.32;93.97;94124.03;5074212;28;20297;-79
2021/11/30 10:07:51;;;;;;;9.50;7.83;;;;;;;2.35;93.58;94131.59;5074050;28;20441;-79
2021/11/30 10:10:19;;;;;;;11.55;9.82;;;;;;;2.53;97.23;94132.13;5074251;28;20927;-79
2021/11/30 10:13:09;;;;;;;12.67;9.53;;;;;;;2.69;94.45;94125.84;5074483;28;20604;-79
2021/11/30 10:15:51;;;;;;;12.77;8.50;;;;;;;2.71;90.61;94128.34;5055287;28;20523;-79
2021/11/30 10:18:22;;;;;;;9.80;8.33;;;;;;;2.59;89.96;94136.91;5074287;28;20457;-79
2021/11/30 10:20:52;;;;;;;15.90;11.43;;;;;;;2.45;90.17;94138.66;5074039;28;20497;-80
2021/11/30 10:23:22;;;;;;;11.90;8.13;;;;;;;2.46;90.58;94142.06;5073883;28;20480;-80
2021/11/30 10:25:50;;;;;;;9.27;8.27;;;;;;;2.28;90.12;94151.03;5073737;28;20451;-80
2021/11/30 10:28:21;;;;;;;12.33;9.17;;;;;;;2.19;90.02;94162.81;5073676;28;20531;-79
2021/11/30 10:30:50;;;;;;;15.20;10.03;;;;;;;2.00;90.22;94160.53;5073648;28;20961;-80
2021/11/30 10:33:19;;;;;;;12.55;9.70;;;;;;;1.96;90.45;94143.56;5073694;28;20523;-80
2021/11/30 10:35:51;;;;;;;13.05;9.80;;;;;;;1.90;88.66;94156.06;5038917;28;20676;-80
2021/11/30 10:38:18;;;;;;;9.45;7.60;;;;;;;1.86;90.33;94156.25;5073483;28;20194;-79
2021/11/30 10:40:46;;;;;;;18.17;12.65;;;;;;;1.93;90.97;94158.44;5073937;28;20213;-80
2021/11/30 10:43:13;;;;;;;15.00;10.90;;;;;;;2.00;89.95;94165.72;5073419;28;20237;-79
2021/11/30 10:45:44;;;;;;;19.27;14.15;;;;;;;2.09;90.67;94164.31;5073364;28;20793;-79
2021/11/30 10:48:14;;;;;;;15.82;10.45;;;;;;;2.12;89.21;94172.72;5073473;28;20225;-79
2021/11/30 10:50:43;;;;;;;23.58;12.77;;;;;;;2.12;88.79;94166.72;5073550;28;20245;-80
2021/11/30 10:53:23;;;;;;;14.63;9.82;;;;;;;2.11;88.89;94159.88;5073112;28;20571;-79
2021/11/30 10:55:52;;;;;;;13.95;8.00;;;;;;;2.05;87.77;94149.94;5072780;28;20198;-80
2021/11/30 10:58:20;;;;;;;12.38;9.35;;;;;;;1.94;88.08;94173.03;5072991;28;20565;-79
2021/11/30 11:00:50;;;;;;;16.60;9.00;;;;;;;2.04;88.92;94167.22;5073070;28;20198;-79
2021/11/30 11:03:20;;;;;;;16.75;10.70;;;;;;;2.12;89.24;94164.13;5054216;28;20511;-79
2021/11/30 11:06:24;;;;;;;12.00;8.88;;;;;;;2.21;89.99;94149.75;5072204;28;20193;-79
2021/11/30 11:08:41;;;;;;;13.05;9.30;;;;;;;2.25;88.84;94152.06;5072890;28;20256;-79
2021/11/30 11:11:10;;;;;;;16.77;9.63;;;;;;;2.29;89.21;94157.84;5073335;28;20284;-79
2021/11/30 11:13:39;;;;;;;11.10;8.20;;;;;;;2.33;89.49;94142.06;5072630;28;20202;-79
2021/11/30 11:16:08;;;;;;;16.67;8.90;;;;;;;2.39;88.83;94139.06;5072472;28;20883;-79
2021/11/30 11:18:37;;;;;;;14.93;8.13;;;;;;;2.52;90.15;94138.25;5072900;28;20810;-79
2021/11/30 11:21:16;;;;;;;12.48;9.65;;;;;;;2.65;89.58;94159.84;5072993;28;20584;-79
2021/11/30 11:23:45;;;;;;;11.20;8.25;;;;;;;2.68;88.53;94170.81;5072922;28;20222;-79
2021/11/30 11:26:31;;;;;;;11.33;7.97;;;;;;;2.79;89.42;94164.91;5072839;28;20198;-79
2021/11/30 11:29:00;;;;;;;11.23;8.70;;;;;;;2.86;88.89;94171.34;5072713;28;20455;-79
2021/11/30 11:31:29;;;;;;;12.20;10.53;;;;;;;2.99;87.55;94176.56;5072544;28;20940;-79
2021/11/30 11:33:58;;;;;;;11.27;8.17;;;;;;;2.81;86.09;94176.00;5053714;28;20439;-80
2021/11/30 11:36:25;;;;;;;13.70;9.83;;;;;;;2.71;85.53;94164.59;5072391;28;20440;-79
2021/11/30 11:38:52;;;;;;;15.07;10.10;;;;;;;2.80;86.24;94164.00;5072292;28;20451;-80
2021/11/30 11:41:19;;;;;;;11.97;8.90;;;;;;;2.87;85.78;94170.41;5072427;28;20563;-80
2021/11/30 11:43:47;;;;;;;10.13;8.10;;;;;;;2.79;88.04;94167.50;5072096;28;21009;-80
2021/11/30 11:46:16;;;;;;;11.67;8.70;;;;;;;2.72;86.61;94171.44;5072577;28;20497;-79
2021/11/30 11:48:47;;;;;;;11.75;9.30;;;;;;;2.84;87.88;94188.75;5072140;28;20841;-80
2021/11/30 11:51:15;;;;;;;10.80;9.00;;;;;;;2.83;85.57;94189.69;5072325;28;20202;-80
2021/11/30 11:53:51;;;;;;;9.27;8.27;;;;;;;2.82;85.44;94190.63;5072221;28;20470;-80
2021/11/30 11:56:21;;;;;;;12.50;8.67;;;;;;;2.87;86.15;94190.31;5072604;28;20468;-80
2021/11/30 11:58:50;;;;;;;11.90;8.52;;;;;;;2.86;85.52;94184.31;5036847;28;20443;-80
2021/11/30 12:01:21;;;;;;;10.23;7.03;;;;;;;2.82;85.13;94188.03;5072205;28;20204;-80
2021/11/30 12:04:08;;;;;;;10.83;7.93;;;;;;;2.77;84.78;94192.69;5072026;28;21013;-79
2021/11/30 12:06:37;;;;;;;8.03;6.37;;;;;;;2.54;84.47;94188.19;5072563;28;20459;-80
2021/11/30 12:09:10;;;;;;;9.60;7.33;;;;;;;2.36;84.43;94180.69;5072551;28;20454;-80
2021/11/30 12:11:38;;;;;;;10.25;8.32;;;;;;;2.39;86.74;94180.47;5072679;28;20498;-80
2021/11/30 12:14:14;;;;;;;11.35;8.02;;;;;;;2.38;85.54;94189.19;5072446;28;20202;-80
2021/11/30 12:17:10;;;;;;;10.63;7.53;;;;;;;2.13;85.22;94189.91;5073846;28;20198;-80
2021/11/30 12:19:41;;;;;;;9.88;7.18;;;;;;;1.84;86.44;94199.50;5033901;28;20453;-80
2021/11/30 12:22:08;;;;;;;9.30;7.37;;;;;;;1.81;87.02;94183.34;5033710;28;20222;-80